sensor_id;sensor_type;location;lat;lon;timestamp;P1;durP1;ratioP1;P2;durP2;ratioP2
35223;SDS011;21367;51.930;8.112;2024-02-16T00:02:28;15.47;;;6.17;;
35223;SDS011;21367;51.930;8.112;2024-02-16T00:07:35;20.23;;;6.30;;
35223;SDS011;21367;51.930;8.112;2024-02-16T00:12:40;14.90;;;5.13;;
35223;SDS011;21367;51.930;8.112;2024-02-16T00:17:44;14.73;;;5.07;;
35223;SDS011;21367;51.930;8.112;2024-02-16T00:23:00;15.55;;;4.75;;
35223;SDS011;21367;51.930;8.112;2024-02-16T00:28:04;12.60;;;4.72;;
35223;SDS011;21367;51.930;8.112;2024-02-16T00:33:14;14.18;;;5.00;;
35223;SDS011;21367;51.930;8.112;2024-02-16T00:38:32;14.10;;;4.68;;
35223;SDS011;21367;51.930;8.112;2024-02-16T00:43:36;13.23;;;4.57;;
35223;SDS011;21367;51.930;8.112;2024-02-16T00:48:43;12.55;;;3.92;;
35223;SDS011;21367;51.930;8.112;2024-02-16T00:53:50;7.50;;;4.13;;
35223;SDS011;21367;51.930;8.112;2024-02-16T00:58:58;10.00;;;4.13;;
35223;SDS011;21367;51.930;8.112;2024-02-16T01:04:05;13.80;;;4.60;;
35223;SDS011;21367;51.930;8.112;2024-02-16T01:09:16;15.60;;;4.50;;
35223;SDS011;21367;51.930;8.112;2024-02-16T01:14:20;10.98;;;4.70;;
35223;SDS011;21367;51.930;8.112;2024-02-16T01:19:24;14.25;;;4.88;;
35223;SDS011;21367;51.930;8.112;2024-02-16T01:24:30;15.90;;;4.75;;
35223;SDS011;21367;51.930;8.112;2024-02-16T01:29:35;10.60;;;4.57;;
35223;SDS011;21367;51.930;8.112;2024-02-16T01:34:42;14.98;;;4.78;;
35223;SDS011;21367;51.930;8.112;2024-02-16T01:39:50;13.55;;;4.57;;
35223;SDS011;21367;51.930;8.112;2024-02-16T01:44:53;14.02;;;4.57;;
35223;SDS011;21367;51.930;8.112;2024-02-16T01:49:57;11.65;;;4.60;;
35223;SDS011;21367;51.930;8.112;2024-02-16T01:55:05;15.32;;;4.57;;
35223;SDS011;21367;51.930;8.112;2024-02-16T02:00:14;12.65;;;4.22;;
35223;SDS011;21367;51.930;8.112;2024-02-16T02:05:21;10.00;;;4.15;;
35223;SDS011;21367;51.930;8.112;2024-02-16T02:10:31;16.52;;;5.32;;
35223;SDS011;21367;51.930;8.112;2024-02-16T02:15:44;15.52;;;5.43;;
35223;SDS011;21367;51.930;8.112;2024-02-16T02:20:47;14.52;;;5.15;;
35223;SDS011;21367;51.930;8.112;2024-02-16T02:25:54;15.98;;;5.25;;
35223;SDS011;21367;51.930;8.112;2024-02-16T02:31:07;12.43;;;5.55;;
35223;SDS011;21367;51.930;8.112;2024-02-16T02:36:15;18.75;;;5.68;;
35223;SDS011;21367;51.930;8.112;2024-02-16T02:41:22;12.05;;;5.15;;
35223;SDS011;21367;51.930;8.112;2024-02-16T02:46:26;15.25;;;4.95;;
35223;SDS011;21367;51.930;8.112;2024-02-16T02:51:30;14.15;;;4.43;;
35223;SDS011;21367;51.930;8.112;2024-02-16T02:56:39;14.25;;;4.53;;
35223;SDS011;21367;51.930;8.112;2024-02-16T03:01:46;11.25;;;4.10;;
35223;SDS011;21367;51.930;8.112;2024-02-16T03:06:57;8.60;;;3.85;;
35223;SDS011;21367;51.930;8.112;2024-02-16T03:12:03;8.00;;;3.30;;
35223;SDS011;21367;51.930;8.112;2024-02-16T03:17:14;8.00;;;3.22;;
35223;SDS011;21367;51.930;8.112;2024-02-16T03:22:17;9.73;;;3.53;;
35223;SDS011;21367;51.930;8.112;2024-02-16T03:27:24;11.40;;;3.88;;
35223;SDS011;21367;51.930;8.112;2024-02-16T03:32:30;9.35;;;3.65;;
35223;SDS011;21367;51.930;8.112;2024-02-16T03:37:43;10.38;;;3.45;;
35223;SDS011;21367;51.930;8.112;2024-02-16T03:42:52;9.82;;;3.78;;
35223;SDS011;21367;51.930;8.112;2024-02-16T03:53:02;9.93;;;3.65;;
35223;SDS011;21367;51.930;8.112;2024-02-16T03:58:09;9.00;;;4.68;;
35223;SDS011;21367;51.930;8.112;2024-02-16T04:03:13;14.00;;;3.78;;
35223;SDS011;21367;51.930;8.112;2024-02-16T04:08:18;9.57;;;3.70;;
35223;SDS011;21367;51.930;8.112;2024-02-16T04:13:24;10.88;;;3.95;;
35223;SDS011;21367;51.930;8.112;2024-02-16T04:18:28;13.70;;;4.35;;
35223;SDS011;21367;51.930;8.112;2024-02-16T04:23:38;13.98;;;4.75;;
35223;SDS011;21367;51.930;8.112;2024-02-16T04:28:45;15.48;;;4.72;;
35223;SDS011;21367;51.930;8.112;2024-02-16T04:33:50;8.00;;;4.20;;
35223;SDS011;21367;51.930;8.112;2024-02-16T04:38:53;16.67;;;5.13;;
35223;SDS011;21367;51.930;8.112;2024-02-16T04:44:00;18.55;;;6.57;;
35223;SDS011;21367;51.930;8.112;2024-02-16T04:49:05;12.40;;;5.57;;
35223;SDS011;21367;51.930;8.112;2024-02-16T04:54:13;15.70;;;4.93;;
35223;SDS011;21367;51.930;8.112;2024-02-16T04:59:20;9.20;;;4.85;;
35223;SDS011;21367;51.930;8.112;2024-02-16T05:04:28;12.45;;;4.22;;
35223;SDS011;21367;51.930;8.112;2024-02-16T05:09:38;9.98;;;4.32;;
35223;SDS011;21367;51.930;8.112;2024-02-16T05:14:49;7.45;;;3.90;;
35223;SDS011;21367;51.930;8.112;2024-02-16T05:19:53;15.50;;;4.80;;
35223;SDS011;21367;51.930;8.112;2024-02-16T05:24:59;10.33;;;4.40;;
35223;SDS011;21367;51.930;8.112;2024-02-16T05:30:08;9.25;;;4.13;;
35223;SDS011;21367;51.930;8.112;2024-02-16T05:35:19;15.00;;;4.47;;
35223;SDS011;21367;51.930;8.112;2024-02-16T05:40:31;9.98;;;4.40;;
35223;SDS011;21367;51.930;8.112;2024-02-16T05:45:48;11.25;;;3.78;;
35223;SDS011;21367;51.930;8.112;2024-02-16T05:50:52;9.30;;;3.97;;
35223;SDS011;21367;51.930;8.112;2024-02-16T05:55:56;17.05;;;4.97;;
35223;SDS011;21367;51.930;8.112;2024-02-16T06:01:06;10.07;;;5.15;;
35223;SDS011;21367;51.930;8.112;2024-02-16T06:06:12;9.02;;;5.65;;
35223;SDS011;21367;51.930;8.112;2024-02-16T06:11:16;17.85;;;6.15;;
35223;SDS011;21367;51.930;8.112;2024-02-16T06:16:23;26.17;;;12.40;;
35223;SDS011;21367;51.930;8.112;2024-02-16T06:21:27;19.65;;;11.27;;
35223;SDS011;21367;51.930;8.112;2024-02-16T06:26:35;22.95;;;10.70;;
35223;SDS011;21367;51.930;8.112;2024-02-16T06:31:51;14.18;;;6.70;;
35223;SDS011;21367;51.930;8.112;2024-02-16T06:36:58;11.50;;;4.47;;
35223;SDS011;21367;51.930;8.112;2024-02-16T06:42:09;13.95;;;3.55;;
35223;SDS011;21367;51.930;8.112;2024-02-16T06:47:16;8.90;;;3.03;;
35223;SDS011;21367;51.930;8.112;2024-02-16T06:52:21;8.07;;;2.80;;
35223;SDS011;21367;51.930;8.112;2024-02-16T06:57:26;11.47;;;2.80;;
35223;SDS011;21367;51.930;8.112;2024-02-16T07:02:34;12.63;;;2.90;;
35223;SDS011;21367;51.930;8.112;2024-02-16T07:07:38;7.00;;;2.38;;
35223;SDS011;21367;51.930;8.112;2024-02-16T07:12:42;11.05;;;2.78;;
35223;SDS011;21367;51.930;8.112;2024-02-16T07:17:55;11.00;;;4.72;;
35223;SDS011;21367;51.930;8.112;2024-02-16T07:22:58;11.60;;;5.18;;
35223;SDS011;21367;51.930;8.112;2024-02-16T07:28:02;13.68;;;4.38;;
35223;SDS011;21367;51.930;8.112;2024-02-16T07:33:18;10.98;;;4.07;;
35223;SDS011;21367;51.930;8.112;2024-02-16T07:38:24;10.75;;;4.70;;
35223;SDS011;21367;51.930;8.112;2024-02-16T07:43:32;7.47;;;2.67;;
35223;SDS011;21367;51.930;8.112;2024-02-16T07:48:38;11.27;;;3.28;;
35223;SDS011;21367;51.930;8.112;2024-02-16T07:53:47;21.15;;;3.60;;
35223;SDS011;21367;51.930;8.112;2024-02-16T07:59:00;10.20;;;2.75;;
35223;SDS011;21367;51.930;8.112;2024-02-16T08:04:07;9.18;;;3.30;;
35223;SDS011;21367;51.930;8.112;2024-02-16T08:09:10;9.93;;;2.92;;
35223;SDS011;21367;51.930;8.112;2024-02-16T08:14:14;7.53;;;3.28;;
35223;SDS011;21367;51.930;8.112;2024-02-16T08:19:31;5.88;;;2.47;;
35223;SDS011;21367;51.930;8.112;2024-02-16T08:24:37;15.75;;;2.58;;
35223;SDS011;21367;51.930;8.112;2024-02-16T08:29:42;11.80;;;4.88;;
35223;SDS011;21367;51.930;8.112;2024-02-16T08:34:49;22.02;;;10.10;;
35223;SDS011;21367;51.930;8.112;2024-02-16T08:40:12;19.38;;;4.75;;
35223;SDS011;21367;51.930;8.112;2024-02-16T08:50:23;8.68;;;2.67;;
35223;SDS011;21367;51.930;8.112;2024-02-16T08:55:27;8.32;;;2.70;;
35223;SDS011;21367;51.930;8.112;2024-02-16T09:00:32;10.10;;;2.40;;
35223;SDS011;21367;51.930;8.112;2024-02-16T09:05:38;11.18;;;2.47;;
35223;SDS011;21367;51.930;8.112;2024-02-16T09:10:44;8.13;;;2.22;;
35223;SDS011;21367;51.930;8.112;2024-02-16T09:15:49;11.98;;;2.45;;
35223;SDS011;21367;51.930;8.112;2024-02-16T09:20:56;23.10;;;6.03;;
35223;SDS011;21367;51.930;8.112;2024-02-16T09:26:00;16.27;;;5.82;;
35223;SDS011;21367;51.930;8.112;2024-02-16T09:31:06;11.48;;;3.15;;
35223;SDS011;21367;51.930;8.112;2024-02-16T09:36:12;14.27;;;2.67;;
35223;SDS011;21367;51.930;8.112;2024-02-16T09:41:26;13.55;;;3.03;;
35223;SDS011;21367;51.930;8.112;2024-02-16T09:46:33;10.77;;;2.88;;
35223;SDS011;21367;51.930;8.112;2024-02-16T09:51:39;10.25;;;2.50;;
35223;SDS011;21367;51.930;8.112;2024-02-16T09:56:43;11.73;;;3.42;;
35223;SDS011;21367;51.930;8.112;2024-02-16T10:01:58;11.90;;;2.90;;
35223;SDS011;21367;51.930;8.112;2024-02-16T10:07:06;10.45;;;2.88;;
35223;SDS011;21367;51.930;8.112;2024-02-16T10:12:10;8.25;;;2.97;;
35223;SDS011;21367;51.930;8.112;2024-02-16T10:17:21;9.38;;;2.90;;
35223;SDS011;21367;51.930;8.112;2024-02-16T10:22:28;12.68;;;2.95;;
35223;SDS011;21367;51.930;8.112;2024-02-16T10:27:32;8.82;;;2.85;;
35223;SDS011;21367;51.930;8.112;2024-02-16T10:32:37;10.05;;;2.70;;
35223;SDS011;21367;51.930;8.112;2024-02-16T10:42:51;11.05;;;2.80;;
35223;SDS011;21367;51.930;8.112;2024-02-16T10:47:55;15.82;;;3.35;;
35223;SDS011;21367;51.930;8.112;2024-02-16T10:53:02;13.10;;;3.00;;
35223;SDS011;21367;51.930;8.112;2024-02-16T10:58:12;18.38;;;2.85;;
35223;SDS011;21367;51.930;8.112;2024-02-16T11:03:16;7.75;;;2.72;;
35223;SDS011;21367;51.930;8.112;2024-02-16T11:08:25;9.93;;;2.78;;
35223;SDS011;21367;51.930;8.112;2024-02-16T11:13:46;8.65;;;2.85;;
35223;SDS011;21367;51.930;8.112;2024-02-16T11:18:50;9.70;;;3.15;;
35223;SDS011;21367;51.930;8.112;2024-02-16T11:23:57;10.40;;;2.85;;
35223;SDS011;21367;51.930;8.112;2024-02-16T11:29:13;7.25;;;3.00;;
35223;SDS011;21367;51.930;8.112;2024-02-16T11:34:26;16.65;;;3.30;;
35223;SDS011;21367;51.930;8.112;2024-02-16T11:39:37;9.90;;;3.40;;
35223;SDS011;21367;51.930;8.112;2024-02-16T11:44:50;10.38;;;3.17;;
35223;SDS011;21367;51.930;8.112;2024-02-16T11:50:07;20.23;;;3.80;;
35223;SDS011;21367;51.930;8.112;2024-02-16T11:55:22;8.30;;;2.70;;
35223;SDS011;21367;51.930;8.112;2024-02-16T12:00:26;14.23;;;3.53;;
35223;SDS011;21367;51.930;8.112;2024-02-16T12:05:31;18.40;;;3.80;;
35223;SDS011;21367;51.930;8.112;2024-02-16T12:10:38;8.40;;;3.42;;
35223;SDS011;21367;51.930;8.112;2024-02-16T12:15:44;11.85;;;3.80;;
35223;SDS011;21367;51.930;8.112;2024-02-16T12:21:00;15.55;;;3.60;;
35223;SDS011;21367;51.930;8.112;2024-02-16T12:26:08;14.15;;;3.05;;
35223;SDS011;21367;51.930;8.112;2024-02-16T12:31:22;22.40;;;4.50;;
35223;SDS011;21367;51.930;8.112;2024-02-16T12:36:27;15.50;;;4.70;;
35223;SDS011;21367;51.930;8.112;2024-02-16T12:41:36;18.13;;;4.47;;
35223;SDS011;21367;51.930;8.112;2024-02-16T12:46:50;15.75;;;4.85;;
35223;SDS011;21367;51.930;8.112;2024-02-16T12:51:54;13.15;;;5.20;;
35223;SDS011;21367;51.930;8.112;2024-02-16T12:57:00;18.73;;;6.03;;
35223;SDS011;21367;51.930;8.112;2024-02-16T13:02:05;17.33;;;5.60;;
35223;SDS011;21367;51.930;8.112;2024-02-16T13:07:09;16.40;;;5.82;;
35223;SDS011;21367;51.930;8.112;2024-02-16T13:12:18;18.33;;;6.78;;
35223;SDS011;21367;51.930;8.112;2024-02-16T13:17:24;18.42;;;6.63;;
35223;SDS011;21367;51.930;8.112;2024-02-16T13:22:30;16.80;;;6.10;;
35223;SDS011;21367;51.930;8.112;2024-02-16T13:27:36;17.92;;;7.88;;
35223;SDS011;21367;51.930;8.112;2024-02-16T13:32:40;16.40;;;6.97;;
35223;SDS011;21367;51.930;8.112;2024-02-16T13:37:45;25.48;;;8.75;;
35223;SDS011;21367;51.930;8.112;2024-02-16T13:42:51;24.67;;;8.40;;
35223;SDS011;21367;51.930;8.112;2024-02-16T13:48:08;34.30;;;9.60;;
35223;SDS011;21367;51.930;8.112;2024-02-16T13:53:15;21.38;;;8.20;;
35223;SDS011;21367;51.930;8.112;2024-02-16T13:58:23;26.65;;;11.00;;
35223;SDS011;21367;51.930;8.112;2024-02-16T14:03:28;23.92;;;10.93;;
35223;SDS011;21367;51.930;8.112;2024-02-16T14:08:39;29.42;;;10.48;;
35223;SDS011;21367;51.930;8.112;2024-02-16T14:13:46;29.05;;;10.80;;
35223;SDS011;21367;51.930;8.112;2024-02-16T14:18:50;25.25;;;10.75;;
35223;SDS011;21367;51.930;8.112;2024-02-16T14:23:58;29.58;;;11.68;;
35223;SDS011;21367;51.930;8.112;2024-02-16T14:29:04;25.77;;;12.32;;
35223;SDS011;21367;51.930;8.112;2024-02-16T14:34:08;36.97;;;11.65;;
35223;SDS011;21367;51.930;8.112;2024-02-16T14:39:13;28.60;;;12.90;;
35223;SDS011;21367;51.930;8.112;2024-02-16T14:44:25;26.92;;;14.65;;
35223;SDS011;21367;51.930;8.112;2024-02-16T14:49:35;33.05;;;14.90;;
35223;SDS011;21367;51.930;8.112;2024-02-16T14:54:39;29.98;;;14.10;;
35223;SDS011;21367;51.930;8.112;2024-02-16T14:59:46;36.95;;;16.40;;
35223;SDS011;21367;51.930;8.112;2024-02-16T15:04:51;30.33;;;16.85;;
35223;SDS011;21367;51.930;8.112;2024-02-16T15:09:55;34.80;;;17.15;;
35223;SDS011;21367;51.930;8.112;2024-02-16T15:15:06;28.90;;;14.40;;
35223;SDS011;21367;51.930;8.112;2024-02-16T15:20:19;28.98;;;14.65;;
35223;SDS011;21367;51.930;8.112;2024-02-16T15:25:24;21.33;;;12.43;;
35223;SDS011;21367;51.930;8.112;2024-02-16T15:30:30;23.02;;;11.13;;
35223;SDS011;21367;51.930;8.112;2024-02-16T15:35:38;19.75;;;9.93;;
35223;SDS011;21367;51.930;8.112;2024-02-16T15:40:44;27.17;;;9.57;;
35223;SDS011;21367;51.930;8.112;2024-02-16T15:45:51;18.23;;;8.23;;
35223;SDS011;21367;51.930;8.112;2024-02-16T15:51:02;18.23;;;9.15;;
35223;SDS011;21367;51.930;8.112;2024-02-16T15:56:08;18.65;;;8.80;;
35223;SDS011;21367;51.930;8.112;2024-02-16T16:01:17;23.55;;;9.10;;
35223;SDS011;21367;51.930;8.112;2024-02-16T16:06:24;16.98;;;7.93;;
35223;SDS011;21367;51.930;8.112;2024-02-16T16:11:34;17.73;;;8.05;;
35223;SDS011;21367;51.930;8.112;2024-02-16T16:16:40;16.95;;;8.63;;
35223;SDS011;21367;51.930;8.112;2024-02-16T16:21:49;24.55;;;9.65;;
35223;SDS011;21367;51.930;8.112;2024-02-16T16:26:56;19.70;;;8.75;;
35223;SDS011;21367;51.930;8.112;2024-02-16T16:32:06;20.70;;;9.32;;
35223;SDS011;21367;51.930;8.112;2024-02-16T16:37:10;20.70;;;9.30;;
35223;SDS011;21367;51.930;8.112;2024-02-16T16:42:22;22.50;;;9.40;;
35223;SDS011;21367;51.930;8.112;2024-02-16T16:47:29;21.10;;;9.55;;
35223;SDS011;21367;51.930;8.112;2024-02-16T16:52:34;20.70;;;9.93;;
35223;SDS011;21367;51.930;8.112;2024-02-16T16:57:39;16.17;;;9.53;;
35223;SDS011;21367;51.930;8.112;2024-02-16T17:02:48;17.48;;;8.60;;
35223;SDS011;21367;51.930;8.112;2024-02-16T17:07:52;15.25;;;8.40;;
35223;SDS011;21367;51.930;8.112;2024-02-16T17:12:59;20.80;;;10.48;;
35223;SDS011;21367;51.930;8.112;2024-02-16T17:18:06;18.80;;;9.80;;
35223;SDS011;21367;51.930;8.112;2024-02-16T17:23:16;16.77;;;9.55;;
35223;SDS011;21367;51.930;8.112;2024-02-16T17:28:28;24.98;;;11.02;;
35223;SDS011;21367;51.930;8.112;2024-02-16T17:33:46;18.85;;;9.20;;
35223;SDS011;21367;51.930;8.112;2024-02-16T17:38:53;14.40;;;8.85;;
35223;SDS011;21367;51.930;8.112;2024-02-16T17:43:56;14.40;;;8.10;;
35223;SDS011;21367;51.930;8.112;2024-02-16T17:49:03;13.00;;;7.03;;
35223;SDS011;21367;51.930;8.112;2024-02-16T17:54:16;11.45;;;6.60;;
35223;SDS011;21367;51.930;8.112;2024-02-16T17:59:19;10.82;;;6.72;;
35223;SDS011;21367;51.930;8.112;2024-02-16T18:04:27;12.45;;;5.97;;
35223;SDS011;21367;51.930;8.112;2024-02-16T18:09:32;9.07;;;6.50;;
35223;SDS011;21367;51.930;8.112;2024-02-16T18:14:38;9.68;;;6.30;;
35223;SDS011;21367;51.930;8.112;2024-02-16T18:19:52;10.70;;;6.68;;
35223;SDS011;21367;51.930;8.112;2024-02-16T18:24:57;9.30;;;6.35;;
35223;SDS011;21367;51.930;8.112;2024-02-16T18:30:04;10.02;;;5.85;;
35223;SDS011;21367;51.930;8.112;2024-02-16T18:40:34;13.95;;;7.75;;
35223;SDS011;21367;51.930;8.112;2024-02-16T18:45:49;12.55;;;7.75;;
35223;SDS011;21367;51.930;8.112;2024-02-16T18:50:58;10.38;;;6.55;;
35223;SDS011;21367;51.930;8.112;2024-02-16T18:56:03;9.73;;;5.75;;
35223;SDS011;21367;51.930;8.112;2024-02-16T19:01:08;11.20;;;6.60;;
35223;SDS011;21367;51.930;8.112;2024-02-16T19:06:15;8.18;;;6.28;;
35223;SDS011;21367;51.930;8.112;2024-02-16T19:11:27;13.07;;;6.70;;
35223;SDS011;21367;51.930;8.112;2024-02-16T19:16:40;8.52;;;5.88;;
35223;SDS011;21367;51.930;8.112;2024-02-16T19:21:48;9.07;;;6.32;;
35223;SDS011;21367;51.930;8.112;2024-02-16T19:26:52;12.75;;;7.50;;
35223;SDS011;21367;51.930;8.112;2024-02-16T19:31:57;16.77;;;9.40;;
35223;SDS011;21367;51.930;8.112;2024-02-16T19:37:03;15.95;;;8.75;;
35223;SDS011;21367;51.930;8.112;2024-02-16T19:42:10;14.95;;;8.82;;
35223;SDS011;21367;51.930;8.112;2024-02-16T19:47:18;13.13;;;8.50;;
35223;SDS011;21367;51.930;8.112;2024-02-16T19:52:27;14.45;;;8.63;;
35223;SDS011;21367;51.930;8.112;2024-02-16T19:57:31;13.45;;;8.70;;
35223;SDS011;21367;51.930;8.112;2024-02-16T20:02:39;15.50;;;8.80;;
35223;SDS011;21367;51.930;8.112;2024-02-16T20:07:47;13.50;;;8.07;;
35223;SDS011;21367;51.930;8.112;2024-02-16T20:12:51;13.38;;;7.80;;
35223;SDS011;21367;51.930;8.112;2024-02-16T20:18:00;14.00;;;8.52;;
35223;SDS011;21367;51.930;8.112;2024-02-16T20:23:09;13.20;;;9.05;;
35223;SDS011;21367;51.930;8.112;2024-02-16T20:28:15;18.35;;;9.75;;
35223;SDS011;21367;51.930;8.112;2024-02-16T20:33:21;16.17;;;10.77;;
35223;SDS011;21367;51.930;8.112;2024-02-16T20:38:28;20.35;;;12.00;;
35223;SDS011;21367;51.930;8.112;2024-02-16T20:43:32;20.27;;;12.70;;
35223;SDS011;21367;51.930;8.112;2024-02-16T20:48:37;21.90;;;13.15;;
35223;SDS011;21367;51.930;8.112;2024-02-16T20:53:47;23.70;;;14.90;;
35223;SDS011;21367;51.930;8.112;2024-02-16T20:58:52;27.02;;;15.75;;
35223;SDS011;21367;51.930;8.112;2024-02-16T21:04:05;24.20;;;14.38;;
35223;SDS011;21367;51.930;8.112;2024-02-16T21:09:11;28.17;;;15.10;;
35223;SDS011;21367;51.930;8.112;2024-02-16T21:14:21;26.58;;;14.93;;
35223;SDS011;21367;51.930;8.112;2024-02-16T21:19:25;25.35;;;15.55;;
35223;SDS011;21367;51.930;8.112;2024-02-16T21:24:32;26.52;;;16.20;;
35223;SDS011;21367;51.930;8.112;2024-02-16T21:29:36;27.08;;;17.00;;
35223;SDS011;21367;51.930;8.112;2024-02-16T21:34:44;25.83;;;15.70;;
35223;SDS011;21367;51.930;8.112;2024-02-16T21:39:51;27.55;;;16.33;;
35223;SDS011;21367;51.930;8.112;2024-02-16T21:44:57;26.00;;;15.88;;
35223;SDS011;21367;51.930;8.112;2024-02-16T21:50:01;25.63;;;15.57;;
35223;SDS011;21367;51.930;8.112;2024-02-16T21:55:13;25.15;;;15.13;;
35223;SDS011;21367;51.930;8.112;2024-02-16T22:00:20;27.75;;;15.43;;
35223;SDS011;21367;51.930;8.112;2024-02-16T22:05:25;26.50;;;16.42;;
35223;SDS011;21367;51.930;8.112;2024-02-16T22:10:32;31.08;;;15.77;;
35223;SDS011;21367;51.930;8.112;2024-02-16T22:15:41;27.10;;;16.08;;
35223;SDS011;21367;51.930;8.112;2024-02-16T22:20:48;26.35;;;16.23;;
35223;SDS011;21367;51.930;8.112;2024-02-16T22:26:00;29.73;;;16.98;;
35223;SDS011;21367;51.930;8.112;2024-02-16T22:31:04;28.27;;;15.57;;
35223;SDS011;21367;51.930;8.112;2024-02-16T22:36:10;27.13;;;16.00;;
35223;SDS011;21367;51.930;8.112;2024-02-16T22:41:21;29.75;;;16.70;;
35223;SDS011;21367;51.930;8.112;2024-02-16T22:46:24;31.05;;;18.55;;
35223;SDS011;21367;51.930;8.112;2024-02-16T22:51:40;32.67;;;16.98;;
35223;SDS011;21367;51.930;8.112;2024-02-16T22:56:46;34.55;;;18.63;;
35223;SDS011;21367;51.930;8.112;2024-02-16T23:06:57;35.25;;;18.85;;
35223;SDS011;21367;51.930;8.112;2024-02-16T23:12:04;45.20;;;20.90;;
35223;SDS011;21367;51.930;8.112;2024-02-16T23:17:12;41.17;;;20.58;;
35223;SDS011;21367;51.930;8.112;2024-02-16T23:22:18;44.87;;;22.97;;
35223;SDS011;21367;51.930;8.112;2024-02-16T23:27:24;44.22;;;23.27;;
35223;SDS011;21367;51.930;8.112;2024-02-16T23:37:32;50.22;;;25.60;;
35223;SDS011;21367;51.930;8.112;2024-02-16T23:48:12;58.13;;;28.08;;
35223;SDS011;21367;51.930;8.112;2024-02-16T23:53:18;54.30;;;26.38;;
35223;SDS011;21367;51.930;8.112;2024-02-16T23:58:25;61.72;;;29.48;;
